Time;durP1;ratioP1;P1;durP2;ratioP2;P2;SDS_P1;SDS_P2;PMS_P1;PMS_P2;Temp;Humidity;BMP_temperature;BMP_pressure;BME280_temperature;BME280_humidity;BME280_pressure;Samples;Min_cycle;Max_cycle;Signal;HPM_P1;HPM_P2
2023/12/04 00:01:26;;;;;;;9.10;6.73;;;-5.30;35.10;;;;;;10397998;28;20230;-74
2023/12/04 00:06:30;;;;;;;9.33;6.30;;;-5.30;35.20;;;;;;10397945;28;20735;-74
2023/12/04 00:11:33;;;;;;;10.70;7.10;;;-5.30;35.40;;;;;;10397504;28;20559;-74
2023/12/04 00:16:38;;;;;;;9.70;6.37;;;-5.30;35.20;;;;;;10397417;28;20230;-74
2023/12/04 00:21:41;;;;;;;9.10;6.73;;;-5.30;35.20;;;;;;10396250;28;20241;-73
2023/12/04 00:26:45;;;;;;;9.23;6.60;;;-5.30;35.40;;;;;;10396867;28;20233;-74
2023/12/04 00:31:49;;;;;;;10.73;6.77;;;-5.30;35.50;;;;;;10396226;28;20243;-74
2023/12/04 00:36:52;;;;;;;10.57;6.27;;;-5.30;35.20;;;;;;10396014;28;20237;-74
2023/12/04 00:41:55;;;;;;;9.03;6.30;;;-5.40;35.00;;;;;;10396281;28;20264;-74
2023/12/04 00:47:00;;;;;;;8.93;5.80;;;-5.50;34.80;;;;;;10395921;28;20237;-74
2023/12/04 00:52:03;;;;;;;8.70;6.13;;;-5.50;35.10;;;;;;10396259;28;20235;-74
2023/12/04 00:57:07;;;;;;;8.77;5.57;;;-5.60;35.20;;;;;;10389386;28;20277;-74
2023/12/04 01:02:12;;;;;;;9.47;6.13;;;-5.60;35.20;;;;;;10384902;28;20237;-73
2023/12/04 01:07:16;;;;;;;9.83;6.13;;;-5.70;35.20;;;;;;10379600;28;20230;-73
2023/12/04 01:12:19;;;;;;;10.50;6.17;;;-5.50;35.40;;;;;;10377046;28;20221;-73
2023/12/04 01:17:24;;;;;;;8.30;5.83;;;-5.50;35.60;;;;;;10373874;28;20242;-73
2023/12/04 01:22:27;;;;;;;8.27;5.70;;;-5.50;36.20;;;;;;10376537;28;20236;-73
2023/12/04 01:27:30;;;;;;;9.53;5.87;;;-5.50;35.50;;;;;;10382284;28;20244;-73
2023/12/04 01:32:35;;;;;;;6.97;5.43;;;-5.40;35.50;;;;;;10383732;28;20312;-73
2023/12/04 01:37:39;;;;;;;6.80;5.13;;;-5.40;35.40;;;;;;10375669;28;20238;-73
2023/12/04 01:42:43;;;;;;;8.30;5.40;;;-5.40;35.40;;;;;;10379902;28;20229;-73
2023/12/04 01:47:49;;;;;;;7.23;5.10;;;-5.50;35.30;;;;;;10374520;28;20355;-73
2023/12/04 01:52:54;;;;;;;6.83;5.20;;;-5.40;35.30;;;;;;10380349;28;20603;-76
2023/12/04 01:57:58;;;;;;;6.97;5.27;;;-5.50;35.20;;;;;;10380802;28;20236;-76
2023/12/04 02:03:03;;;;;;;7.73;5.40;;;-5.40;35.30;;;;;;10376077;28;20234;-76
2023/12/04 02:08:07;;;;;;;7.27;5.10;;;-5.50;35.10;;;;;;10377999;28;20237;-76
2023/12/04 02:13:11;;;;;;;6.73;5.50;;;-5.50;35.20;;;;;;10381404;28;20333;-76
2023/12/04 02:18:16;;;;;;;7.97;5.10;;;-5.50;35.10;;;;;;10378409;28;20247;-76
2023/12/04 02:23:19;;;;;;;8.13;4.87;;;-5.50;35.20;;;;;;10384014;28;20230;-76
2023/12/04 02:28:24;;;;;;;8.17;5.13;;;-5.60;34.90;;;;;;10379205;28;20240;-76
2023/12/04 02:33:28;;;;;;;7.17;4.67;;;-5.60;34.80;;;;;;10371968;28;20734;-76
2023/12/04 02:38:33;;;;;;;8.13;5.07;;;-5.70;34.80;;;;;;10377238;28;20261;-75
2023/12/04 02:43:37;;;;;;;7.57;4.87;;;-5.70;34.90;;;;;;10379465;28;20264;-76
2023/12/04 02:48:41;;;;;;;7.37;5.23;;;-5.70;35.00;;;;;;10382104;28;20229;-76
2023/12/04 02:53:44;;;;;;;9.03;5.40;;;-5.80;34.80;;;;;;10388199;28;20248;-76
2023/12/04 02:58:48;;;;;;;8.37;5.40;;;-5.80;34.80;;;;;;10385853;28;20233;-76
2023/12/04 03:03:52;;;;;;;8.70;5.77;;;-5.80;34.80;;;;;;10387759;28;20229;-76
2023/12/04 03:08:55;;;;;;;7.93;5.20;;;-5.80;34.70;;;;;;10391957;28;20596;-76
2023/12/04 03:14:01;;;;;;;8.50;4.90;;;-5.90;34.60;;;;;;10383376;28;20329;-76
2023/12/04 03:19:04;;;;;;;8.23;5.27;;;-5.80;35.30;;;;;;10387336;28;20229;-76
2023/12/04 03:24:07;;;;;;;5.83;4.00;;;-6.00;34.50;;;;;;10383264;28;20332;-75
2023/12/04 03:29:13;;;;;;;10.13;5.43;;;-6.00;34.60;;;;;;10387747;28;20230;-76
2023/12/04 03:34:16;;;;;;;8.03;4.93;;;-6.10;34.60;;;;;;10383951;28;20233;-75
2023/12/04 03:39:19;;;;;;;9.47;5.30;;;-6.10;34.60;;;;;;10387814;28;20237;-76
2023/12/04 03:44:24;;;;;;;6.40;4.70;;;-6.10;34.60;;;;;;10387435;28;21438;-76
2023/12/04 03:49:27;;;;;;;7.17;4.77;;;-6.10;34.70;;;;;;10387652;28;20241;-76
2023/12/04 03:54:31;;;;;;;7.80;5.07;;;-6.10;34.80;;;;;;10390275;28;20893;-76
2023/12/04 03:59:35;;;;;;;7.83;5.10;;;-6.10;35.50;;;;;;10385673;28;20230;-76
2023/12/04 04:04:38;;;;;;;6.57;4.47;;;-6.10;34.60;;;;;;10380590;28;20230;-76
2023/12/04 04:09:41;;;;;;;6.40;4.70;;;-6.10;34.60;;;;;;10381227;28;20238;-76
2023/12/04 04:14:46;;;;;;;8.50;4.70;;;-6.20;34.50;;;;;;10383657;28;20284;-75
2023/12/04 04:19:49;;;;;;;7.57;4.67;;;-6.20;34.40;;;;;;10387065;28;20248;-75
2023/12/04 04:24:52;;;;;;;6.80;4.63;;;-6.30;34.40;;;;;;10388681;28;20234;-75
2023/12/04 04:29:58;;;;;;;7.20;4.80;;;-6.30;34.60;;;;;;10389235;28;20793;-76
2023/12/04 04:35:01;;;;;;;7.90;4.63;;;-6.30;34.50;;;;;;10388874;28;20319;-76
2023/12/04 04:40:06;;;;;;;6.60;4.93;;;-6.40;35.00;;;;;;10389036;28;20245;-75
2023/12/04 04:45:11;;;;;;;5.57;4.47;;;-6.40;34.60;;;;;;10383497;28;20225;-76
2023/12/04 04:50:15;;;;;;;6.47;4.50;;;-6.40;34.60;;;;;;10380316;28;20284;-75
2023/12/04 04:55:18;;;;;;;7.77;5.13;;;-6.40;34.70;;;;;;10384866;28;20230;-76
2023/12/04 05:00:42;;;;;;;6.60;4.57;;;-6.50;34.80;;;;;;10382016;28;20237;-75
2023/12/04 05:05:45;;;;;;;5.47;3.97;;;-6.40;34.80;;;;;;10383022;28;20299;-75
2023/12/04 05:10:49;;;;;;;7.30;4.37;;;-6.50;34.20;;;;;;10386470;28;20821;-75
2023/12/04 05:15:53;;;;;;;6.37;4.47;;;-6.60;34.10;;;;;;10379832;28;20313;-75
2023/12/04 05:20:56;;;;;;;6.13;4.37;;;-6.80;34.10;;;;;;10383805;28;20311;-75
2023/12/04 05:25:59;;;;;;;6.17;3.60;;;-6.80;34.30;;;;;;10379823;28;20229;-75
2023/12/04 05:31:05;;;;;;;5.73;3.63;;;-6.80;34.60;;;;;;10388352;28;20328;-75
2023/12/04 05:36:09;;;;;;;4.63;3.63;;;-6.80;34.80;;;;;;10388283;28;20237;-75
2023/12/04 05:41:12;;;;;;;6.50;4.03;;;-6.70;34.90;;;;;;10379923;28;20226;-75
2023/12/04 05:46:17;;;;;;;5.43;4.10;;;-6.70;35.00;;;;;;10380603;28;20243;-75
2023/12/04 05:51:20;;;;;;;7.90;4.60;;;-6.60;34.90;;;;;;10386811;28;20233;-75
2023/12/04 05:56:23;;;;;;;5.33;4.33;;;-6.60;35.10;;;;;;10384211;28;20243;-75
2023/12/04 06:01:28;;;;;;;7.77;4.87;;;-6.60;35.10;;;;;;10386857;28;20585;-74
2023/12/04 06:06:31;;;;;;;5.67;4.37;;;-6.50;35.00;;;;;;10385162;28;20551;-77
2023/12/04 06:11:34;;;;;;;7.70;4.33;;;-6.50;35.10;;;;;;10389599;28;20879;-76
2023/12/04 06:16:38;;;;;;;7.47;5.07;;;-6.50;35.10;;;;;;10393992;28;20683;-76
2023/12/04 06:21:42;;;;;;;6.93;4.73;;;-6.40;35.10;;;;;;10401040;28;20417;-78
2023/12/04 06:26:48;;;;;;;8.13;5.23;;;-6.50;36.10;;;;;;10398239;28;20237;-77
2023/12/04 06:31:53;;;;;;;12.20;6.87;;;-6.30;36.90;;;;;;10396728;28;20573;-78
2023/12/04 06:36:57;;;;;;;8.87;6.00;;;-6.20;36.60;;;;;;10398272;28;20244;-76
2023/12/04 06:42:01;;;;;;;9.67;6.60;;;-6.20;36.20;;;;;;10394872;28;20243;-76
2023/12/04 06:47:08;;;;;;;10.97;7.20;;;-6.20;35.80;;;;;;10394405;28;20312;-77
2023/12/04 06:52:11;;;;;;;10.87;7.63;;;-6.20;35.80;;;;;;10393232;28;20233;-77
2023/12/04 06:57:15;;;;;;;11.10;6.57;;;-6.10;36.70;;;;;;10388575;28;20612;-77
2023/12/04 07:02:20;;;;;;;8.63;6.27;;;-6.10;36.00;;;;;;10400875;28;20226;-77
2023/12/04 07:07:23;;;;;;;8.87;5.93;;;-6.00;36.00;;;;;;10392777;28;20329;-76
2023/12/04 07:12:26;;;;;;;9.07;5.90;;;-6.00;36.00;;;;;;10406721;28;20241;-79
2023/12/04 07:17:31;;;;;;;9.47;5.63;;;-5.90;38.20;;;;;;10397698;28;20233;-80
2023/12/04 07:22:35;;;;;;;7.70;5.40;;;-5.60;38.50;;;;;;10403466;28;20681;-79
2023/12/04 07:27:41;;;;;;;7.90;5.23;;;-5.40;37.60;;;;;;10401387;28;20235;-79
2023/12/04 07:32:45;;;;;;;8.73;5.87;;;-5.40;36.90;;;;;;10396758;28;20241;-80
2023/12/04 07:37:48;;;;;;;9.00;5.83;;;-5.40;36.50;;;;;;10400403;28;20233;-80
2023/12/04 07:42:52;;;;;;;8.53;6.00;;;-5.30;36.50;;;;;;10401571;28;20261;-74
2023/12/04 07:47:56;;;;;;;11.67;7.27;;;-5.30;36.30;;;;;;10399750;28;20275;-77
2023/12/04 07:53:00;;;;;;;11.27;7.03;;;-5.40;36.50;;;;;;10394339;28;20234;-76
2023/12/04 07:58:03;;;;;;;9.47;6.97;;;-5.30;36.70;;;;;;10390979;28;20316;-77
2023/12/04 08:03:08;;;;;;;15.93;7.07;;;-5.30;36.50;;;;;;10403365;28;20246;-76
2023/12/04 08:08:11;;;;;;;10.83;7.10;;;-5.20;36.30;;;;;;10392372;28;20240;-76
2023/12/04 08:13:14;;;;;;;10.87;7.13;;;-5.20;36.20;;;;;;10394079;28;20316;-76
2023/12/04 08:18:19;;;;;;;9.97;6.43;;;-5.20;36.30;;;;;;10400967;28;20233;-76
2023/12/04 08:23:22;;;;;;;10.17;6.40;;;-5.10;36.70;;;;;;10385860;28;20339;-76
2023/12/04 08:28:25;;;;;;;8.63;6.57;;;-5.00;37.00;;;;;;10391448;28;20238;-75
2023/12/04 08:33:29;;;;;;;10.03;6.23;;;-4.90;37.20;;;;;;10374492;28;20240;-77
2023/12/04 08:38:33;;;;;;;9.47;5.93;;;-4.80;37.40;;;;;;10385980;28;20264;-75
2023/12/04 08:43:36;;;;;;;10.60;6.07;;;-4.70;37.40;;;;;;10388294;28;20267;-75
2023/12/04 08:48:41;;;;;;;9.73;6.80;;;-4.50;37.70;;;;;;10386663;28;20227;-76
2023/12/04 08:53:45;;;;;;;11.23;7.37;;;-4.40;37.80;;;;;;10388723;28;20242;-77
2023/12/04 08:58:50;;;;;;;12.07;7.80;;;-4.30;37.60;;;;;;10390502;28;20335;-76
2023/12/04 09:03:57;;;;;;;12.63;8.00;;;-4.20;37.20;;;;;;10392799;28;20226;-76
2023/12/04 09:09:00;;;;;;;11.77;7.37;;;-4.10;36.50;;;;;;10388606;28;20232;-75
2023/12/04 09:14:11;;;;;;;10.57;7.20;;;-4.10;36.60;;;;;;10378599;28;20662;-75
2023/12/04 09:19:17;;;;;;;11.67;7.83;;;-4.10;37.20;;;;;;10402353;28;20229;-74
2023/12/04 09:24:20;;;;;;;11.53;7.17;;;-4.10;37.90;;;;;;10396826;28;20691;-74
2023/12/04 09:29:24;;;;;;;13.77;7.67;;;-4.00;37.90;;;;;;10391016;28;20239;-75
2023/12/04 09:34:29;;;;;;;11.47;7.17;;;-3.80;37.90;;;;;;10398038;28;20238;-74
2023/12/04 09:39:32;;;;;;;11.27;7.93;;;-3.70;37.70;;;;;;10400468;28;20225;-77
2023/12/04 09:44:37;;;;;;;9.43;6.93;;;-3.60;37.70;;;;;;10398028;28;20340;-76
2023/12/04 09:49:42;;;;;;;14.30;8.67;;;-3.50;37.90;;;;;;10386059;28;20217;-77
2023/12/04 09:54:45;;;;;;;10.80;7.93;;;-3.30;38.00;;;;;;10390683;28;20234;-75
2023/12/04 09:59:49;;;;;;;11.70;7.90;;;-3.20;38.20;;;;;;10403455;28;20234;-76
2023/12/04 10:04:54;;;;;;;10.17;7.30;;;-2.90;38.20;;;;;;10399588;28;20233;-78
2023/12/04 10:09:57;;;;;;;11.93;7.87;;;-2.90;38.20;;;;;;10403473;28;20229;-76
2023/12/04 10:15:08;;;;;;;11.20;7.87;;;-2.80;38.40;;;;;;10403109;28;20239;-76
2023/12/04 10:20:17;;;;;;;13.50;9.23;;;-2.70;38.50;;;;;;10401236;28;20230;-75
2023/12/04 10:25:21;;;;;;;13.20;9.00;;;-2.50;38.70;;;;;;10399422;28;20238;-77
2023/12/04 10:30:27;;;;;;;13.20;9.37;;;-2.40;38.70;;;;;;10396409;28;20701;-77
2023/12/04 10:35:33;;;;;;;12.03;9.23;;;-2.20;38.70;;;;;;10394733;28;20232;-76
2023/12/04 10:40:37;;;;;;;13.97;9.40;;;-2.00;38.60;;;;;;10392018;28;20312;-77
2023/12/04 10:45:42;;;;;;;14.77;10.63;;;-2.00;38.40;;;;;;10392958;28;20283;-76
2023/12/04 10:50:48;;;;;;;11.80;8.93;;;-1.90;38.50;;;;;;10402682;28;20221;-78
2023/12/04 10:55:57;;;;;;;15.40;11.07;;;-1.80;38.80;;;;;;10389725;28;20268;-75
2023/12/04 11:01:01;;;;;;;16.97;11.90;;;-1.70;39.00;;;;;;10409117;28;20235;-75
2023/12/04 11:06:12;;;;;;;14.63;11.43;;;-1.60;38.90;;;;;;10409365;28;20316;-73
2023/12/04 11:11:24;;;;;;;13.30;10.60;;;-1.50;38.40;;;;;;10396774;28;20234;-73
2023/12/04 11:16:32;;;;;;;13.80;9.87;;;-1.50;38.30;;;;;;10396457;28;20322;-77
2023/12/04 11:21:40;;;;;;;13.33;10.07;;;-1.50;38.30;;;;;;10394462;28;20233;-79
2023/12/04 11:26:44;;;;;;;15.40;11.57;;;-1.50;38.30;;;;;;10395087;28;20799;-75
2023/12/04 11:31:48;;;;;;;15.40;10.77;;;-1.50;38.10;;;;;;10390940;28;20715;-75
2023/12/04 11:36:56;;;;;;;17.03;11.40;;;-1.50;38.10;;;;;;10391373;28;20817;-75
2023/12/04 11:42:00;;;;;;;13.30;10.50;;;-1.50;38.90;;;;;;10380226;28;20237;-74
2023/12/04 11:47:06;;;;;;;13.43;9.30;;;-1.40;38.50;;;;;;10376266;28;20765;-73
2023/12/04 11:52:11;;;;;;;13.10;9.73;;;-1.40;38.60;;;;;;10382637;28;20739;-74
2023/12/04 11:57:25;;;;;;;12.73;9.73;;;-1.30;38.50;;;;;;10384000;28;20237;-72
2023/12/04 12:02:29;;;;;;;13.27;10.33;;;-1.20;38.60;;;;;;10378112;28;20281;-72
2023/12/04 12:07:54;;;;;;;13.70;10.03;;;-1.20;38.80;;;;;;10377198;28;20688;-72
2023/12/04 12:12:58;;;;;;;12.43;10.10;;;-1.00;39.10;;;;;;10382823;28;20230;-74
2023/12/04 12:18:01;;;;;;;12.97;10.00;;;-0.90;39.10;;;;;;10386996;28;20230;-75
2023/12/04 12:23:06;;;;;;;15.17;10.73;;;-0.80;39.10;;;;;;10382101;28;20230;-72
2023/12/04 12:28:11;;;;;;;12.90;10.50;;;-0.80;38.90;;;;;;10383577;28;20232;-74
2023/12/04 12:33:15;;;;;;;16.77;11.93;;;-0.70;38.90;;;;;;10383532;28;20613;-77
2023/12/04 12:38:20;;;;;;;15.33;10.77;;;-0.60;39.10;;;;;;10393400;28;20783;-75
2023/12/04 12:43:24;;;;;;;12.93;9.43;;;-0.60;38.90;;;;;;10392554;28;20320;-75
2023/12/04 12:48:28;;;;;;;13.97;11.73;;;-0.50;39.00;;;;;;10390789;28;20236;-76
2023/12/04 12:53:37;;;;;;;15.23;12.00;;;-0.50;38.90;;;;;;10384398;28;20237;-73
2023/12/04 12:58:42;;;;;;;13.33;10.70;;;-0.50;38.90;;;;;;10392303;28;20230;-75
2023/12/04 13:03:47;;;;;;;15.40;11.40;;;-0.40;38.90;;;;;;10378678;28;20712;-74
2023/12/04 13:08:52;;;;;;;11.23;9.57;;;-0.40;38.90;;;;;;10386762;28;20597;-76
2023/12/04 13:13:57;;;;;;;12.97;10.83;;;-0.40;39.00;;;;;;10386511;28;20225;-76
2023/12/04 13:19:00;;;;;;;12.60;10.70;;;-0.30;39.10;;;;;;10386707;28;20241;-75
2023/12/04 13:24:08;;;;;;;14.20;11.33;;;-0.20;39.30;;;;;;10391460;28;20232;-76
2023/12/04 13:29:11;;;;;;;14.37;11.70;;;-0.10;39.20;;;;;;10391083;28;20877;-78
2023/12/04 13:34:14;;;;;;;14.60;11.00;;;-0.10;39.10;;;;;;10390480;28;20233;-76
2023/12/04 13:39:27;;;;;;;14.47;11.70;;;-0.10;39.10;;;;;;10381958;28;20252;-77
2023/12/04 13:44:33;;;;;;;14.43;11.23;;;0.00;39.30;;;;;;10384909;28;20307;-73
2023/12/04 13:49:36;;;;;;;15.07;11.50;;;0.00;39.20;;;;;;10385760;28;20703;-73
2023/12/04 13:54:47;;;;;;;15.50;12.37;;;0.10;39.10;;;;;;10379858;28;20292;-74
2023/12/04 13:59:50;;;;;;;16.50;12.57;;;0.20;38.90;;;;;;10379450;28;20229;-75
2023/12/04 14:04:53;;;;;;;19.67;15.37;;;0.10;38.80;;;;;;10383733;28;20321;-74
2023/12/04 14:10:00;;;;;;;18.43;15.27;;;0.10;38.70;;;;;;10378996;28;20229;-74
2023/12/04 14:15:03;;;;;;;15.67;13.90;;;0.10;38.70;;;;;;10381075;28;20221;-74
2023/12/04 14:20:12;;;;;;;15.40;13.03;;;0.10;38.70;;;;;;10383854;28;20780;-73
2023/12/04 14:25:17;;;;;;;15.93;13.17;;;0.10;38.80;;;;;;10384261;28;20929;-74
2023/12/04 14:30:20;;;;;;;18.27;14.20;;;0.20;38.90;;;;;;10380505;28;20268;-75
2023/12/04 14:35:23;;;;;;;16.93;12.80;;;0.30;39.00;;;;;;10374317;28;20234;-74
2023/12/04 14:40:28;;;;;;;14.30;11.63;;;0.30;38.90;;;;;;10375265;28;20232;-76
2023/12/04 14:45:33;;;;;;;13.70;11.03;;;0.30;38.90;;;;;;10388346;28;20241;-74
2023/12/04 14:50:37;;;;;;;15.00;12.80;;;0.40;40.90;;;;;;10388973;28;20413;-76
2023/12/04 15:06:42;;;;;;;16.50;14.70;;;0.70;39.80;;;;;;10389973;28;21178;-76
2023/12/04 15:12:14;;;;;;;18.63;15.10;;;0.70;39.20;;;;;;10391326;28;20225;-75
2023/12/04 15:17:29;;;;;;;15.07;12.93;;;0.70;38.50;;;;;;10391446;28;20308;-74
2023/12/04 15:22:33;;;;;;;15.00;12.17;;;0.60;39.10;;;;;;10393944;28;20256;-74
2023/12/04 15:27:38;;;;;;;14.13;12.20;;;0.50;39.30;;;;;;10394276;28;20222;-76
2023/12/04 15:32:41;;;;;;;16.10;12.83;;;0.40;39.70;;;;;;10385400;28;20226;-77
2023/12/04 15:37:44;;;;;;;21.90;15.93;;;0.40;38.60;;;;;;10390092;28;20296;-75
2023/12/04 15:42:49;;;;;;;22.93;17.27;;;0.30;38.30;;;;;;10387211;28;20230;-75
2023/12/04 15:47:52;;;;;;;23.37;16.80;;;0.00;38.10;;;;;;10390786;28;20315;-74
2023/12/04 15:52:57;;;;;;;22.70;17.07;;;-0.20;38.50;;;;;;10394022;28;20240;-75
2023/12/04 15:58:02;;;;;;;20.20;15.57;;;-0.20;38.50;;;;;;10386283;28;20226;-74
2023/12/04 16:03:05;;;;;;;18.17;14.73;;;-0.40;38.50;;;;;;10391477;28;20328;-75
2023/12/04 16:08:09;;;;;;;17.37;13.63;;;-0.50;38.40;;;;;;10392263;28;20716;-75
2023/12/04 16:13:15;;;;;;;21.20;14.57;;;-0.60;38.30;;;;;;10390632;28;20368;-76
2023/12/04 16:18:18;;;;;;;16.07;11.43;;;-0.80;38.50;;;;;;10390763;28;20226;-74
2023/12/04 16:23:22;;;;;;;14.80;11.20;;;-0.70;39.90;;;;;;10384994;28;20246;-75
2023/12/04 16:28:27;;;;;;;16.10;12.80;;;-0.60;40.90;;;;;;10389688;28;20252;-74
2023/12/04 16:33:31;;;;;;;17.20;14.07;;;-0.40;43.40;;;;;;10386398;28;20237;-74
2023/12/04 16:38:34;;;;;;;19.87;15.83;;;0.10;44.10;;;;;;10388560;28;20240;-74
2023/12/04 16:43:39;;;;;;;18.97;14.70;;;0.40;41.50;;;;;;10391559;28;20270;-74
2023/12/04 16:48:44;;;;;;;18.77;15.33;;;0.50;39.70;;;;;;10390701;28;20745;-73
2023/12/04 16:53:47;;;;;;;17.67;13.60;;;0.40;39.30;;;;;;10393230;28;20249;-73
2023/12/04 16:58:52;;;;;;;19.20;13.97;;;0.30;40.10;;;;;;10389603;28;20229;-74
2023/12/04 17:03:55;;;;;;;15.70;14.00;;;0.30;40.60;;;;;;10386678;28;20325;-74
2023/12/04 17:08:58;;;;;;;17.07;13.40;;;0.40;40.20;;;;;;10388123;28;20596;-74
2023/12/04 17:14:03;;;;;;;17.47;13.13;;;0.40;39.50;;;;;;10384014;28;20233;-74
2023/12/04 17:19:07;;;;;;;16.07;12.77;;;0.40;39.10;;;;;;10388059;28;20240;-74
2023/12/04 17:24:11;;;;;;;15.47;12.40;;;0.30;38.90;;;;;;10390124;28;20229;-75
2023/12/04 17:35:38;;;;;;;14.70;11.40;;;0.20;38.80;;;;;;10376255;28;20225;-74
2023/12/04 17:40:41;;;;;;;14.30;10.80;;;0.10;39.40;;;;;;10396547;28;20240;-73
2023/12/04 17:45:44;;;;;;;12.60;10.13;;;0.10;39.20;;;;;;10391836;28;20321;-74
2023/12/04 17:50:49;;;;;;;13.57;11.13;;;0.10;39.00;;;;;;10393480;28;20233;-74
2023/12/04 17:55:52;;;;;;;13.13;10.50;;;0.10;38.70;;;;;;10388407;28;20259;-73
2023/12/04 18:00:56;;;;;;;14.13;11.07;;;0.10;38.90;;;;;;10392114;28;20716;-74
2023/12/04 18:06:01;;;;;;;15.87;11.87;;;0.00;39.00;;;;;;10390877;28;20590;-74
2023/12/04 18:11:05;;;;;;;13.47;11.30;;;0.10;39.00;;;;;;10384480;28;20225;-74
2023/12/04 18:16:09;;;;;;;14.07;11.60;;;0.00;38.80;;;;;;10383841;28;20782;-74
2023/12/04 18:21:14;;;;;;;18.27;12.60;;;0.00;38.60;;;;;;10400407;28;20244;-74
2023/12/04 18:26:18;;;;;;;15.77;11.27;;;-0.10;38.40;;;;;;10385930;28;20230;-74
2023/12/04 18:31:23;;;;;;;14.50;11.07;;;-0.10;38.60;;;;;;10392680;28;20341;-74
2023/12/04 18:36:30;;;;;;;15.40;11.63;;;-0.20;38.50;;;;;;10395857;28;20252;-74
2023/12/04 18:41:34;;;;;;;17.00;13.20;;;-0.20;38.50;;;;;;10398660;28;20280;-74
2023/12/04 18:46:40;;;;;;;23.60;17.00;;;-0.30;38.40;;;;;;10387333;28;20244;-74
2023/12/04 18:51:45;;;;;;;21.40;16.70;;;-0.40;38.50;;;;;;10390085;28;20324;-74
2023/12/04 18:56:48;;;;;;;18.93;14.60;;;-0.40;38.80;;;;;;10392616;28;20241;-74
2023/12/04 19:01:52;;;;;;;16.30;12.73;;;-0.40;38.90;;;;;;10392025;28;20605;-75
2023/12/04 19:06:57;;;;;;;15.57;13.07;;;-0.40;38.80;;;;;;10386882;28;20234;-74
2023/12/04 19:12:00;;;;;;;16.10;12.30;;;-0.40;38.80;;;;;;10391053;28;20233;-74
2023/12/04 19:17:03;;;;;;;20.50;15.23;;;-0.40;38.70;;;;;;10385965;28;20240;-75
2023/12/04 19:22:08;;;;;;;25.87;18.80;;;-0.40;38.30;;;;;;10383596;28;20240;-75
2023/12/04 19:27:11;;;;;;;21.97;15.70;;;-0.50;38.20;;;;;;10386786;28;20238;-75
2023/12/04 19:32:14;;;;;;;18.60;14.83;;;-0.50;38.30;;;;;;10387939;28;20721;-74
2023/12/04 19:37:24;;;;;;;20.37;13.10;;;-0.60;38.50;;;;;;10387112;28;20277;-75
2023/12/04 19:42:28;;;;;;;17.67;13.67;;;-0.60;38.40;;;;;;10387005;28;20287;-73
2023/12/04 19:47:31;;;;;;;19.00;12.87;;;-0.60;38.70;;;;;;10384738;28;20233;-73
2023/12/04 19:52:36;;;;;;;18.17;12.37;;;-0.60;38.90;;;;;;10384982;28;20236;-73
2023/12/04 19:57:39;;;;;;;14.57;11.73;;;-0.50;38.90;;;;;;10385381;28;20368;-73
2023/12/04 20:02:42;;;;;;;15.03;11.77;;;-0.50;38.90;;;;;;10389981;28;20787;-74
2023/12/04 20:07:49;;;;;;;13.73;11.70;;;-0.50;38.70;;;;;;10389098;28;20337;-74
2023/12/04 20:12:52;;;;;;;15.30;12.20;;;-0.50;38.50;;;;;;10383528;28;20245;-74
2023/12/04 20:17:55;;;;;;;15.53;11.50;;;-0.50;38.40;;;;;;10392221;28;20320;-74
2023/12/04 20:23:00;;;;;;;17.33;13.10;;;-0.50;38.40;;;;;;10387095;28;20242;-73
2023/12/04 20:28:03;;;;;;;18.13;12.80;;;-0.60;38.50;;;;;;10388699;28;20250;-73
2023/12/04 20:33:06;;;;;;;18.07;12.17;;;-0.60;38.70;;;;;;10388195;28;20247;-74
2023/12/04 20:38:13;;;;;;;14.43;10.77;;;-0.60;38.70;;;;;;10383538;28;20234;-74
2023/12/04 20:43:16;;;;;;;15.47;11.40;;;-0.60;38.80;;;;;;10387912;28;20237;-75
2023/12/04 20:48:20;;;;;;;15.20;11.83;;;-0.60;38.90;;;;;;10384801;28;20229;-74
2023/12/04 20:53:26;;;;;;;16.60;12.23;;;-0.50;39.10;;;;;;10384294;28;20247;-75
2023/12/04 20:58:29;;;;;;;16.20;11.73;;;-0.50;39.10;;;;;;10383436;28;20229;-75
2023/12/04 21:03:32;;;;;;;15.23;11.80;;;-0.50;39.20;;;;;;10378499;28;20614;-74
2023/12/04 21:08:37;;;;;;;15.17;11.70;;;-0.40;39.10;;;;;;10375455;28;20257;-73
2023/12/04 21:13:40;;;;;;;13.37;11.40;;;-0.40;38.90;;;;;;10376020;28;20234;-73
2023/12/04 21:18:44;;;;;;;13.30;11.60;;;-0.40;38.90;;;;;;10370851;28;20260;-76
2023/12/04 21:23:49;;;;;;;12.77;10.50;;;-0.40;39.00;;;;;;10381874;28;20758;-75
2023/12/04 21:28:52;;;;;;;14.00;10.77;;;-0.40;39.00;;;;;;10379521;28;20249;-75
2023/12/04 21:33:56;;;;;;;14.33;11.00;;;-0.30;39.10;;;;;;10380256;28;20996;-75
2023/12/04 21:39:01;;;;;;;15.20;10.67;;;-0.30;39.20;;;;;;10378533;28;20803;-74
2023/12/04 21:44:04;;;;;;;18.23;12.07;;;-0.30;39.10;;;;;;10378799;28;20353;-76
2023/12/04 21:49:08;;;;;;;23.40;14.77;;;-0.30;39.30;;;;;;10380572;28;20264;-76
2023/12/04 21:54:13;;;;;;;21.10;15.07;;;-0.30;39.30;;;;;;10388180;28;20739;-75
2023/12/04 21:59:16;;;;;;;16.90;12.00;;;-0.20;39.40;;;;;;10383968;28;20229;-75
2023/12/04 22:04:31;;;;;;;13.97;10.40;;;-0.20;39.40;;;;;;10381107;28;20562;-74
2023/12/04 22:09:36;;;;;;;11.77;10.33;;;-0.20;39.30;;;;;;10381371;28;20291;-74
2023/12/04 22:14:40;;;;;;;14.10;10.37;;;-0.20;39.40;;;;;;10388257;28;20720;-75
2023/12/04 22:19:43;;;;;;;12.80;10.53;;;-0.20;39.30;;;;;;10387996;28;20237;-75
2023/12/04 22:24:47;;;;;;;12.13;9.83;;;-0.30;39.50;;;;;;10391961;28;20241;-75
2023/12/04 22:29:51;;;;;;;10.97;9.37;;;-0.30;39.80;;;;;;10384014;28;20240;-75
2023/12/04 22:34:54;;;;;;;10.70;9.43;;;-0.30;39.90;;;;;;10385043;28;20317;-75
2023/12/04 22:39:59;;;;;;;13.53;10.33;;;-0.30;40.10;;;;;;10381734;28;20325;-74
2023/12/04 22:45:03;;;;;;;11.13;9.87;;;-0.30;40.30;;;;;;10383986;28;20237;-74
2023/12/04 22:50:07;;;;;;;11.90;10.07;;;-0.20;40.30;;;;;;10379540;28;20240;-75
2023/12/04 23:01:34;;;;;;;12.20;10.27;;;-0.10;40.50;;;;;;10389968;28;20226;-75
2023/12/04 23:06:38;;;;;;;12.00;9.83;;;0.00;40.40;;;;;;10387734;28;20321;-75
2023/12/04 23:11:41;;;;;;;10.10;9.00;;;0.00;40.40;;;;;;10389452;28;20221;-74
2023/12/04 23:16:46;;;;;;;11.33;9.37;;;0.10;40.50;;;;;;10388991;28;21176;-75
2023/12/04 23:21:49;;;;;;;9.87;8.83;;;0.20;40.70;;;;;;10392049;28;20236;-75
2023/12/04 23:26:52;;;;;;;10.07;8.50;;;0.20;40.60;;;;;;10397876;28;20800;-74
2023/12/04 23:31:57;;;;;;;10.87;9.03;;;0.30;40.60;;;;;;10386424;28;20239;-75
2023/12/04 23:37:00;;;;;;;10.13;8.47;;;0.40;40.70;;;;;;10394926;28;20300;-75
2023/12/04 23:42:04;;;;;;;10.00;8.97;;;0.40;40.70;;;;;;10388746;28;20312;-75
2023/12/04 23:47:08;;;;;;;11.33;9.43;;;0.50;40.70;;;;;;10391336;28;20320;-75
2023/12/04 23:52:12;;;;;;;12.03;9.87;;;0.60;40.90;;;;;;10397358;28;20328;-75
2023/12/04 23:57:15;;;;;;;10.60;9.37;;;0.60;40.70;;;;;;10388215;28;20233;-75
